Time;durP1;ratioP1;P1;durP2;ratioP2;P2;SDS_P1;SDS_P2;PMS_P1;PMS_P2;Temp;Humidity;BMP_temperature;BMP_pressure;BME280_temperature;BME280_humidity;BME280_pressure;Samples;Min_cycle;Max_cycle;Signal;HPM_P1;HPM_P2
2022/12/09 00:00:42;;;;;;;23.88;14.30;;;;;;;-1.84;100.00;100081.16;5017691;28;20144;-74
2022/12/09 00:03:09;;;;;;;22.52;12.43;;;;;;;-1.84;100.00;100076.00;5019763;28;20129;-75
2022/12/09 00:05:40;;;;;;;27.13;14.32;;;;;;;-1.86;100.00;100077.69;5014765;28;20111;-74
2022/12/09 00:08:06;;;;;;;22.33;13.10;;;;;;;-1.88;100.00;100079.31;5028395;28;20045;-75
2022/12/09 00:10:33;;;;;;;23.15;14.77;;;;;;;-1.89;100.00;100086.16;5014885;28;20041;-74
2022/12/09 00:12:59;;;;;;;20.88;13.10;;;;;;;-1.89;100.00;100077.56;5030100;28;20044;-74
2022/12/09 00:15:26;;;;;;;22.20;12.45;;;;;;;-1.89;100.00;100081.00;5017196;28;20578;-74
2022/12/09 00:17:52;;;;;;;23.90;13.45;;;;;;;-1.88;100.00;100081.88;4998218;28;20128;-73
2022/12/09 00:20:19;;;;;;;24.40;13.35;;;;;;;-1.91;100.00;100079.22;5018917;28;20045;-74
2022/12/09 00:22:46;;;;;;;22.20;12.80;;;;;;;-1.89;100.00;100095.53;4998125;28;20140;-76
2022/12/09 00:25:12;;;;;;;29.02;14.93;;;;;;;-1.90;100.00;100086.09;5018055;28;20056;-74
2022/12/09 00:27:39;;;;;;;24.27;14.30;;;;;;;-1.88;100.00;100094.69;5006440;28;20068;-73
2022/12/09 00:30:06;;;;;;;25.25;14.20;;;;;;;-1.87;100.00;100088.75;4998406;28;20111;-74
2022/12/09 00:32:33;;;;;;;23.77;14.98;;;;;;;-1.88;100.00;100092.13;5011588;28;20045;-73
2022/12/09 00:34:59;;;;;;;24.10;14.82;;;;;;;-1.88;100.00;100089.56;5015909;28;20045;-73
2022/12/09 00:37:26;;;;;;;21.23;12.10;;;;;;;-1.90;100.00;100088.66;5005196;28;20573;-74
2022/12/09 00:39:53;;;;;;;17.90;11.10;;;;;;;-1.93;100.00;100094.56;5016669;28;20033;-74
2022/12/09 00:42:19;;;;;;;27.50;14.38;;;;;;;-1.93;100.00;100093.69;5014155;28;20052;-74
2022/12/09 00:44:46;;;;;;;28.02;15.05;;;;;;;-1.93;100.00;100098.81;5011307;28;20042;-74
2022/12/09 00:47:12;;;;;;;29.60;13.82;;;;;;;-1.95;100.00;100096.19;5024243;28;20477;-75
2022/12/09 00:49:39;;;;;;;30.42;14.98;;;;;;;-1.95;100.00;100097.91;5011297;28;20042;-74
2022/12/09 00:52:05;;;;;;;22.33;12.40;;;;;;;-1.95;100.00;100097.91;5014160;28;20067;-74
2022/12/09 00:54:32;;;;;;;22.92;13.18;;;;;;;-1.95;100.00;100097.91;5015754;28;20781;-74
2022/12/09 00:56:58;;;;;;;23.23;12.18;;;;;;;-1.96;100.00;100101.28;5023540;28;20555;-76
2022/12/09 00:59:25;;;;;;;24.05;13.55;;;;;;;-1.97;100.00;100096.97;5010729;28;20050;-75
2022/12/09 01:01:51;;;;;;;21.33;13.02;;;;;;;-2.00;100.00;100093.47;5012688;28;20501;-75
2022/12/09 01:04:18;;;;;;;22.35;12.65;;;;;;;-2.01;100.00;100093.44;5012077;28;20038;-75
2022/12/09 01:06:44;;;;;;;24.23;14.93;;;;;;;-2.01;100.00;100098.56;5011085;28;20050;-75
2022/12/09 01:09:12;;;;;;;22.88;13.70;;;;;;;-2.03;100.00;100103.66;4995801;28;20902;-73
2022/12/09 01:11:39;;;;;;;21.05;13.23;;;;;;;-2.04;100.00;100101.03;5014559;28;20046;-73
2022/12/09 01:14:05;;;;;;;26.55;14.43;;;;;;;-2.03;100.00;100113.03;5017642;28;20152;-75
2022/12/09 01:16:34;;;;;;;21.25;13.20;;;;;;;-2.05;100.00;100106.97;5021109;28;21050;-75
2022/12/09 01:19:05;;;;;;;25.83;14.57;;;;;;;-2.07;100.00;100112.06;5013449;28;20112;-75
2022/12/09 01:21:34;;;;;;;23.40;13.35;;;;;;;-2.07;100.00;100113.78;5011974;28;20052;-75
2022/12/09 01:24:01;;;;;;;24.38;12.75;;;;;;;-2.07;100.00;100113.78;5013534;28;20054;-74
2022/12/09 01:26:27;;;;;;;23.02;13.68;;;;;;;-2.11;100.00;100114.47;5011888;28;20605;-74
2022/12/09 01:28:55;;;;;;;25.45;12.38;;;;;;;-2.14;100.00;100107.53;5012643;28;20088;-74
2022/12/09 01:31:24;;;;;;;25.58;15.02;;;;;;;-2.13;100.00;100111.00;5016242;28;20046;-74
2022/12/09 01:33:52;;;;;;;25.50;13.18;;;;;;;-2.13;100.00;100111.00;5015895;28;20052;-74
2022/12/09 01:36:28;;;;;;;22.30;12.35;;;;;;;-2.14;100.00;100111.81;4999263;28;20704;-74
2022/12/09 01:38:56;;;;;;;23.30;12.65;;;;;;;-2.15;100.00;100121.19;5013189;28;20477;-76
2022/12/09 01:41:23;;;;;;;25.13;13.82;;;;;;;-2.17;100.00;100120.25;5029033;28;20043;-77
2022/12/09 01:44:19;;;;;;;21.83;13.48;;;;;;;-2.18;100.00;100114.28;5015553;28;20120;-75
2022/12/09 01:46:47;;;;;;;23.00;12.20;;;;;;;-2.19;100.00;100109.97;5027639;28;20965;-74
2022/12/09 01:49:34;;;;;;;25.42;13.30;;;;;;;-2.20;100.00;100112.47;5006004;28;20838;-73
2022/12/09 01:52:10;;;;;;;22.52;11.52;;;;;;;-2.20;100.00;100115.91;5025067;28;20049;-72
2022/12/09 01:54:39;;;;;;;23.38;12.65;;;;;;;-2.21;100.00;100097.91;5014653;28;20047;-74
2022/12/09 01:57:06;;;;;;;21.90;13.60;;;;;;;-2.23;100.00;100097.88;5007468;28;20041;-73
2022/12/09 01:59:32;;;;;;;24.98;12.82;;;;;;;-2.26;100.00;100100.31;5012060;28;20048;-75
2022/12/09 02:02:02;;;;;;;23.85;14.05;;;;;;;-2.24;100.00;100096.13;5014899;28;20060;-76
2022/12/09 02:04:34;;;;;;;27.35;14.25;;;;;;;-2.26;100.00;100096.88;5012272;28;20042;-73
2022/12/09 02:07:06;;;;;;;25.10;14.40;;;;;;;-2.29;100.00;100097.66;5030071;28;20046;-73
2022/12/09 02:09:32;;;;;;;23.35;12.95;;;;;;;-2.31;100.00;100101.84;5008721;28;20042;-73
2022/12/09 02:12:14;;;;;;;24.67;13.70;;;;;;;-2.32;100.00;100095.00;5014898;28;20033;-74
2022/12/09 02:14:53;;;;;;;28.70;14.80;;;;;;;-2.33;100.00;100093.25;5012588;28;20042;-74
2022/12/09 02:17:37;;;;;;;21.67;12.50;;;;;;;-2.37;100.00;100096.53;5008527;28;20049;-73
2022/12/09 02:20:34;;;;;;;22.90;12.57;;;;;;;-2.39;100.00;100087.91;5009416;28;20866;-74
2022/12/09 02:23:33;;;;;;;22.00;12.38;;;;;;;-2.42;100.00;100088.66;5026834;28;20731;-73
2022/12/09 02:26:20;;;;;;;22.02;12.05;;;;;;;-2.42;100.00;100080.97;5010144;28;20060;-73
2022/12/09 02:29:11;;;;;;;22.08;11.82;;;;;;;-2.43;100.00;100086.91;5011968;28;20077;-74
2022/12/09 02:32:32;;;;;;;21.98;11.73;;;;;;;-2.42;100.00;100090.38;5013859;28;20045;-73
2022/12/09 02:35:22;;;;;;;22.38;12.48;;;;;;;-2.45;100.00;100088.56;5006155;28;20058;-73
2022/12/09 02:38:06;;;;;;;27.95;13.05;;;;;;;-2.44;100.00;100092.00;4989681;28;20073;-73
2022/12/09 02:40:50;;;;;;;27.10;13.20;;;;;;;-2.45;100.00;100092.81;5020590;28;20386;-73
2022/12/09 02:43:24;;;;;;;22.58;13.27;;;;;;;-2.44;100.00;100094.56;5019625;28;20712;-75
2022/12/09 02:45:52;;;;;;;24.98;13.43;;;;;;;-2.47;100.00;100089.34;5028207;28;20139;-75
2022/12/09 02:48:41;;;;;;;20.92;12.27;;;;;;;-2.46;100.00;100083.38;5007999;28;20041;-75
2022/12/09 02:51:14;;;;;;;21.38;12.25;;;;;;;-2.46;100.00;100091.06;5013612;28;20372;-75
2022/12/09 02:53:44;;;;;;;20.85;11.77;;;;;;;-2.47;100.00;100086.78;5022204;28;20041;-74
2022/12/09 02:56:12;;;;;;;20.45;12.05;;;;;;;-2.46;100.00;100081.69;5009128;28;20061;-75
2022/12/09 02:58:39;;;;;;;21.45;12.48;;;;;;;-2.46;100.00;100088.50;5024280;28;20129;-74
2022/12/09 03:01:06;;;;;;;24.30;12.32;;;;;;;-2.46;100.00;100078.22;5004229;28;20085;-75
2022/12/09 03:03:34;;;;;;;18.38;11.20;;;;;;;-2.44;100.00;100089.44;5011455;28;20056;-75
2022/12/09 03:06:14;;;;;;;23.30;12.70;;;;;;;-2.46;100.00;100074.00;5021522;28;20050;-73
2022/12/09 03:08:58;;;;;;;28.90;15.30;;;;;;;-2.45;100.00;100074.88;5029181;28;20077;-76
2022/12/09 03:11:26;;;;;;;24.13;13.13;;;;;;;-2.46;100.00;100068.88;5010698;28;21231;-74
2022/12/09 03:14:16;;;;;;;25.45;13.45;;;;;;;-2.47;100.00;100069.69;5021594;28;20076;-74
2022/12/09 03:17:01;;;;;;;20.35;11.88;;;;;;;-2.47;100.00;100067.13;5007938;28;20065;-73
2022/12/09 03:19:44;;;;;;;26.63;13.90;;;;;;;-2.45;100.00;100068.06;5007654;28;20046;-73
2022/12/09 03:22:23;;;;;;;25.88;12.27;;;;;;;-2.47;100.00;100067.13;5006484;28;20038;-73
2022/12/09 03:25:02;;;;;;;29.50;14.80;;;;;;;-2.46;100.00;100065.41;4991888;28;20103;-73
2022/12/09 03:27:37;;;;;;;27.88;13.45;;;;;;;-2.47;100.00;100058.56;5007517;28;20053;-75
2022/12/09 03:30:05;;;;;;;24.90;13.15;;;;;;;-2.50;100.00;100062.75;5007862;28;20049;-73
2022/12/09 03:32:33;;;;;;;26.45;14.02;;;;;;;-2.50;100.00;100057.63;5007118;28;20123;-75
2022/12/09 03:35:09;;;;;;;25.30;13.27;;;;;;;-2.53;100.00;100054.97;5008808;28;20152;-75
2022/12/09 03:37:40;;;;;;;22.83;13.32;;;;;;;-2.53;100.00;100052.41;5002879;28;20768;-75
2022/12/09 03:40:12;;;;;;;30.85;14.20;;;;;;;-2.51;100.00;100052.47;5021922;28;20045;-74
2022/12/09 03:42:49;;;;;;;25.48;13.25;;;;;;;-2.52;100.00;100050.72;5014279;28;20709;-75
2022/12/09 03:45:17;;;;;;;28.17;12.73;;;;;;;-2.54;100.00;100052.38;5014318;28;20095;-73
2022/12/09 03:47:44;;;;;;;24.77;12.43;;;;;;;-2.55;100.00;100053.19;5010690;28;20466;-75
2022/12/09 03:50:12;;;;;;;25.10;13.05;;;;;;;-2.55;100.00;100050.63;5014137;28;20400;-74
2022/12/09 03:53:06;;;;;;;21.08;13.13;;;;;;;-2.57;100.00;100054.81;5014586;28;20053;-73
2022/12/09 03:55:49;;;;;;;23.50;11.90;;;;;;;-2.56;100.00;100051.44;5012539;28;20116;-75
2022/12/09 03:58:17;;;;;;;26.67;14.30;;;;;;;-2.59;100.00;100047.06;5009542;28;20056;-74
2022/12/09 04:00:44;;;;;;;25.52;13.32;;;;;;;-2.60;100.00;100049.59;5014845;28;20040;-73
2022/12/09 04:03:15;;;;;;;20.10;11.35;;;;;;;-2.60;100.00;100044.47;5012929;28;20741;-74
2022/12/09 04:05:42;;;;;;;25.77;13.90;;;;;;;-2.62;100.00;100044.41;5009447;28;20050;-73
2022/12/09 04:08:10;;;;;;;24.42;13.25;;;;;;;-2.63;100.00;100045.22;5009254;28;20372;-74
2022/12/09 04:10:37;;;;;;;24.40;12.30;;;;;;;-2.64;100.00;100046.03;5015510;28;20045;-74
2022/12/09 04:13:03;;;;;;;24.50;12.85;;;;;;;-2.64;100.00;100046.03;5013809;28;20754;-73
2022/12/09 04:15:30;;;;;;;24.63;13.45;;;;;;;-2.64;100.00;100048.59;5000236;28;20567;-73
2022/12/09 04:17:56;;;;;;;25.20;14.68;;;;;;;-2.64;100.00;100040.91;5032585;28;20048;-73
2022/12/09 04:20:23;;;;;;;22.60;12.55;;;;;;;-2.63;100.00;100040.09;5016858;28;20060;-73
2022/12/09 04:22:49;;;;;;;21.38;12.65;;;;;;;-2.64;100.00;100038.34;5003326;28;20185;-73
2022/12/09 04:25:16;;;;;;;27.50;14.35;;;;;;;-2.67;100.00;100030.59;5015927;28;20149;-73
2022/12/09 04:27:42;;;;;;;26.60;13.88;;;;;;;-2.69;100.00;100040.75;5029991;28;20148;-74
2022/12/09 04:30:12;;;;;;;31.05;14.13;;;;;;;-2.70;100.00;100031.34;4999771;28;20057;-73
2022/12/09 04:32:38;;;;;;;30.00;14.25;;;;;;;-2.70;100.00;100033.91;5016278;28;20049;-74
2022/12/09 04:35:05;;;;;;;25.38;14.48;;;;;;;-2.70;100.00;100033.91;5013297;28;20061;-76
2022/12/09 04:37:33;;;;;;;22.13;13.13;;;;;;;-2.72;100.00;100025.28;5015130;28;20128;-73
2022/12/09 04:39:59;;;;;;;26.00;13.70;;;;;;;-2.74;100.00;100033.72;5034961;28;20438;-74
2022/12/09 04:42:28;;;;;;;30.67;13.95;;;;;;;-2.74;100.00;100033.72;5016466;28;20377;-74
2022/12/09 04:44:54;;;;;;;30.73;16.33;;;;;;;-2.74;100.00;100028.63;5012098;28;20128;-74
2022/12/09 04:47:21;;;;;;;20.30;11.23;;;;;;;-2.71;100.00;100032.16;5027928;28;20051;-74
2022/12/09 04:49:47;;;;;;;26.45;14.00;;;;;;;-2.73;100.00;100032.91;5017501;28;20045;-74
2022/12/09 04:52:14;;;;;;;19.25;12.20;;;;;;;-2.70;100.00;100038.13;5018544;28;20835;-74
2022/12/09 04:54:40;;;;;;;25.23;12.52;;;;;;;-2.73;100.00;100041.47;5015342;28;20053;-75
2022/12/09 04:57:07;;;;;;;28.50;13.73;;;;;;;-2.73;100.00;100043.16;5013104;28;20202;-74
2022/12/09 04:59:33;;;;;;;32.20;15.38;;;;;;;-2.70;100.00;100044.16;5029607;28;20692;-74
2022/12/09 05:02:00;;;;;;;26.25;14.95;;;;;;;-2.67;100.00;100043.38;5013050;28;20094;-74
2022/12/09 05:04:27;;;;;;;26.92;13.48;;;;;;;-2.69;100.00;100027.94;5009350;28;20072;-75
2022/12/09 05:06:53;;;;;;;28.27;15.23;;;;;;;-2.73;100.00;100035.47;5009312;28;20400;-76
2022/12/09 05:09:20;;;;;;;32.72;16.55;;;;;;;-2.68;100.00;100034.81;5008561;28;20050;-74
2022/12/09 05:11:46;;;;;;;28.42;13.80;;;;;;;-2.65;100.00;100036.59;5017327;28;20776;-75
2022/12/09 05:14:13;;;;;;;26.50;14.38;;;;;;;-2.68;100.00;100037.38;5014552;28;20046;-75
2022/12/09 05:16:40;;;;;;;30.08;15.48;;;;;;;-2.72;100.00;100032.97;5013364;28;20044;-75
2022/12/09 05:19:07;;;;;;;26.52;15.40;;;;;;;-2.82;100.00;100028.34;5024579;28;20041;-76
2022/12/09 05:21:33;;;;;;;28.33;13.65;;;;;;;-2.85;100.00;100035.94;5001411;28;20072;-75
2022/12/09 05:24:02;;;;;;;26.52;13.77;;;;;;;-2.91;100.00;100044.25;5025628;28;20058;-75
2022/12/09 05:26:29;;;;;;;25.40;12.73;;;;;;;-2.94;100.00;100040.72;5010061;28;20049;-75
2022/12/09 05:28:56;;;;;;;31.95;13.38;;;;;;;-2.94;100.00;100039.03;5000207;28;20037;-75
2022/12/09 05:31:23;;;;;;;23.90;11.93;;;;;;;-2.94;100.00;100044.16;5012612;28;20052;-76
2022/12/09 05:33:51;;;;;;;24.98;13.13;;;;;;;-2.91;100.00;100044.25;5015259;28;20037;-75
2022/12/09 05:36:23;;;;;;;19.63;10.63;;;;;;;-2.92;100.00;100039.97;5032849;28;20550;-75
2022/12/09 05:38:51;;;;;;;23.25;14.02;;;;;;;-2.92;100.00;100036.50;5017271;28;20046;-76
2022/12/09 05:41:18;;;;;;;26.85;12.73;;;;;;;-2.92;100.00;100033.94;5015085;28;20049;-76
2022/12/09 05:43:45;;;;;;;28.23;14.40;;;;;;;-2.90;100.00;100037.47;5015900;28;20046;-76
2022/12/09 05:46:14;;;;;;;27.23;14.52;;;;;;;-2.88;100.00;100043.47;5031751;28;20309;-76
2022/12/09 05:48:42;;;;;;;27.67;12.45;;;;;;;-2.85;100.00;100041.06;5014730;28;20049;-76
2022/12/09 05:51:15;;;;;;;27.33;13.52;;;;;;;-2.85;100.00;100036.78;5031230;28;20041;-76
2022/12/09 05:53:42;;;;;;;26.58;12.80;;;;;;;-2.84;100.00;100035.97;5016937;28;20065;-75
2022/12/09 05:56:08;;;;;;;21.58;12.60;;;;;;;-2.80;100.00;100038.63;5009836;28;20136;-76
2022/12/09 05:58:35;;;;;;;23.52;12.82;;;;;;;-2.78;100.00;100040.44;5015057;28;20043;-75
2022/12/09 06:01:09;;;;;;;21.98;12.32;;;;;;;-2.75;100.00;100037.09;4998828;28;20110;-75
2022/12/09 06:03:36;;;;;;;24.42;12.32;;;;;;;-2.78;100.00;100035.31;5037291;28;20479;-74
2022/12/09 06:06:26;;;;;;;24.35;12.80;;;;;;;-2.80;100.00;100026.72;5019796;28;20716;-74
2022/12/09 06:08:58;;;;;;;25.30;14.52;;;;;;;-2.84;100.00;100030.00;5032033;28;20095;-77
2022/12/09 06:11:25;;;;;;;23.88;13.35;;;;;;;-2.88;100.00;100025.56;5021117;28;20046;-76
2022/12/09 06:13:52;;;;;;;25.02;12.68;;;;;;;-2.93;100.00;100025.41;5016770;28;20052;-75
2022/12/09 06:16:21;;;;;;;30.95;16.02;;;;;;;-2.91;100.00;100023.75;5017061;28;20056;-74
2022/12/09 06:18:49;;;;;;;25.38;13.57;;;;;;;-2.92;100.00;100026.28;5002487;28;20053;-75
2022/12/09 06:21:17;;;;;;;30.48;14.32;;;;;;;-2.93;100.00;100027.09;5010513;28;20050;-75
2022/12/09 06:23:44;;;;;;;25.13;14.55;;;;;;;-2.94;100.00;100028.78;5015378;28;20064;-74
2022/12/09 06:26:23;;;;;;;23.50;13.18;;;;;;;-2.95;100.00;100024.47;5016117;28;20045;-77
2022/12/09 06:28:50;;;;;;;23.77;12.98;;;;;;;-2.93;100.00;100032.19;5010948;28;20045;-75
2022/12/09 06:31:17;;;;;;;22.05;11.35;;;;;;;-2.96;100.00;100030.41;5022352;28;20132;-75
2022/12/09 06:33:44;;;;;;;28.02;12.98;;;;;;;-2.95;100.00;100028.75;5018181;28;20077;-74
2022/12/09 06:36:11;;;;;;;23.15;12.15;;;;;;;-2.95;100.00;100034.72;5025265;28;20095;-74
2022/12/09 06:38:38;;;;;;;28.38;12.90;;;;;;;-2.94;100.00;100033.91;5000789;28;20045;-73
2022/12/09 06:41:10;;;;;;;22.55;11.80;;;;;;;-2.94;100.00;100035.59;5028815;28;20120;-75
2022/12/09 06:43:37;;;;;;;23.75;13.70;;;;;;;-2.93;100.00;100035.66;5028453;28;20049;-74
2022/12/09 06:46:12;;;;;;;21.50;11.95;;;;;;;-2.91;100.00;100031.44;5027326;28;20166;-74
2022/12/09 06:48:38;;;;;;;25.35;13.82;;;;;;;-2.91;100.00;100028.03;5016109;28;20073;-75
2022/12/09 06:51:05;;;;;;;27.25;13.63;;;;;;;-2.91;100.00;100028.88;5016819;28;20774;-75
2022/12/09 06:53:32;;;;;;;23.98;12.05;;;;;;;-2.91;100.00;100022.91;5015090;28;20045;-75
2022/12/09 06:56:06;;;;;;;23.55;12.48;;;;;;;-2.92;100.00;100023.72;5018270;28;20195;-74
2022/12/09 06:58:33;;;;;;;22.33;11.90;;;;;;;-2.92;100.00;100024.59;4994361;28;20095;-75
2022/12/09 07:01:22;;;;;;;22.38;13.38;;;;;;;-2.88;100.00;100031.56;5015200;28;20049;-75
2022/12/09 07:03:53;;;;;;;27.67;13.25;;;;;;;-2.82;100.00;100036.03;5014856;28;20069;-74
2022/12/09 07:06:39;;;;;;;24.27;13.90;;;;;;;-2.74;100.00;100032.03;5015478;28;20098;-75
2022/12/09 07:09:21;;;;;;;26.80;13.85;;;;;;;-2.60;100.00;100042.75;5015716;28;20041;-74
2022/12/09 07:11:48;;;;;;;24.48;12.57;;;;;;;-2.46;100.00;100047.47;5014524;28;20065;-76
2022/12/09 07:14:17;;;;;;;34.17;14.38;;;;;;;-2.35;100.00;100047.06;5017514;28;20116;-74
2022/12/09 07:16:44;;;;;;;22.83;11.68;;;;;;;-2.22;100.00;100050.00;5013842;28;20073;-75
2022/12/09 07:19:20;;;;;;;25.38;12.30;;;;;;;-2.14;100.00;100040.84;5015349;28;20081;-76
2022/12/09 07:21:47;;;;;;;26.48;13.27;;;;;;;-2.07;100.00;100040.25;5018150;28;20037;-75
2022/12/09 07:24:15;;;;;;;25.65;11.60;;;;;;;-2.00;100.00;100039.59;5014444;28;20056;-74
2022/12/09 07:26:41;;;;;;;25.30;12.30;;;;;;;-1.93;100.00;100042.38;5012084;28;20050;-76
2022/12/09 07:29:09;;;;;;;22.67;11.77;;;;;;;-1.85;100.00;100041.81;5018142;28;20040;-74
2022/12/09 07:31:38;;;;;;;21.63;13.07;;;;;;;-1.82;100.00;100046.16;5019754;28;20051;-76
2022/12/09 07:34:10;;;;;;;21.75;12.55;;;;;;;-1.75;100.00;100036.97;5015277;28;20506;-76
2022/12/09 07:36:37;;;;;;;23.70;12.55;;;;;;;-1.67;100.00;100043.19;5015081;28;20041;-74
2022/12/09 07:39:07;;;;;;;24.50;12.50;;;;;;;-1.60;100.00;100036.53;5015248;28;20053;-73
2022/12/09 07:41:34;;;;;;;20.38;12.25;;;;;;;-1.57;100.00;100037.50;5016643;28;20044;-73
2022/12/09 07:44:01;;;;;;;24.10;12.35;;;;;;;-1.51;100.00;100034.28;5014701;28;20058;-74
2022/12/09 07:46:27;;;;;;;22.70;12.95;;;;;;;-1.47;100.00;100038.66;5015681;28;20049;-74
2022/12/09 07:48:54;;;;;;;24.88;12.77;;;;;;;-1.44;100.00;100038.75;5000676;28;20071;-74
2022/12/09 07:51:21;;;;;;;24.27;12.85;;;;;;;-1.36;100.00;100041.53;5029590;28;20068;-73
2022/12/09 07:53:48;;;;;;;18.63;11.10;;;;;;;-1.30;100.00;100052.00;5000286;28;20128;-74
2022/12/09 07:56:16;;;;;;;27.73;14.73;;;;;;;-1.24;100.00;100041.03;5016816;28;20201;-75
2022/12/09 07:58:46;;;;;;;23.67;13.02;;;;;;;-1.21;100.00;100043.72;5017195;28;20042;-75
2022/12/09 08:01:17;;;;;;;29.58;13.15;;;;;;;-1.19;100.00;100047.16;5018507;28;20042;-75
2022/12/09 08:03:45;;;;;;;24.35;11.00;;;;;;;-1.17;100.00;100043.81;5030892;28;20144;-77
2022/12/09 08:06:13;;;;;;;27.60;12.07;;;;;;;-1.12;100.00;100048.22;5036078;28;20045;-74
2022/12/09 08:08:40;;;;;;;21.00;12.32;;;;;;;-1.10;100.00;100044.00;5034169;28;20136;-74
2022/12/09 08:11:13;;;;;;;24.58;12.82;;;;;;;-1.08;100.00;100053.50;5021645;28;20037;-76
2022/12/09 08:13:40;;;;;;;18.73;11.27;;;;;;;-1.04;100.00;100051.91;5018377;28;20120;-76
2022/12/09 08:16:10;;;;;;;19.83;11.00;;;;;;;-1.00;100.00;100049.44;5017170;28;20144;-75
2022/12/09 08:18:37;;;;;;;14.90;9.55;;;;;;;-0.99;100.00;100047.75;5032555;28;20110;-76
2022/12/09 08:21:10;;;;;;;21.23;13.05;;;;;;;-0.97;100.00;100053.78;5017421;28;20103;-76
2022/12/09 08:23:38;;;;;;;18.20;11.18;;;;;;;-0.95;100.00;100046.13;5033610;28;20049;-75
2022/12/09 08:26:06;;;;;;;18.75;12.15;;;;;;;-0.91;100.00;100051.41;5014852;28;20119;-76
2022/12/09 08:28:33;;;;;;;24.35;13.18;;;;;;;-0.85;100.00;100055.81;5002221;28;20484;-76
2022/12/09 08:31:07;;;;;;;26.73;11.95;;;;;;;-0.80;100.00;100054.25;5009314;28;20041;-75
2022/12/09 08:33:34;;;;;;;;;;;;;;;-0.77;100.00;100051.78;5012666;28;20045;-76
2022/12/09 08:36:03;;;;;;;20.20;11.45;;;;;;;-0.73;100.00;100047.56;5029466;28;20011;-75
2022/12/09 08:38:31;;;;;;;19.85;10.45;;;;;;;-0.65;100.00;100045.22;5029435;28;20041;-75
2022/12/09 08:40:58;;;;;;;21.77;10.93;;;;;;;-0.61;100.00;100042.78;5021826;28;20071;-77
2022/12/09 08:43:27;;;;;;;28.17;13.48;;;;;;;-0.56;100.00;100042.88;5019163;28;20042;-75
2022/12/09 08:45:54;;;;;;;21.15;10.82;;;;;;;-0.52;100.00;100040.44;5020074;28;20656;-75
2022/12/09 08:48:25;;;;;;;22.55;12.30;;;;;;;-0.47;100.00;100049.97;5018409;28;20488;-74
2022/12/09 08:50:54;;;;;;;21.98;10.23;;;;;;;-0.48;100.00;100043.97;5017030;28;20045;-76
2022/12/09 08:53:27;;;;;;;21.48;12.05;;;;;;;-0.46;100.00;100049.16;5006313;28;20144;-74
2022/12/09 08:55:56;;;;;;;24.02;11.85;;;;;;;-0.45;100.00;100045.75;5005424;28;20044;-75
2022/12/09 08:58:24;;;;;;;21.67;11.20;;;;;;;-0.43;100.00;100046.66;5018248;28;20041;-76
2022/12/09 09:00:51;;;;;;;21.73;11.23;;;;;;;-0.41;100.00;100052.72;5019453;28;20108;-76
2022/12/09 09:03:17;;;;;;;18.10;11.02;;;;;;;-0.35;100.00;100046.03;5004604;28;20474;-76
2022/12/09 09:05:45;;;;;;;18.95;11.30;;;;;;;-0.30;100.00;100040.13;5018272;28;20050;-76
2022/12/09 09:08:11;;;;;;;25.42;12.48;;;;;;;-0.28;100.00;100044.47;5019360;28;20060;-76
2022/12/09 09:10:40;;;;;;;20.02;10.45;;;;;;;-0.25;100.00;100039.44;5022082;28;20045;-75
2022/12/09 09:13:07;;;;;;;16.33;9.23;;;;;;;-0.21;100.00;100053.22;5019270;28;20431;-76
2022/12/09 09:15:34;;;;;;;22.13;10.93;;;;;;;-0.17;100.00;100045.63;5020727;28;20038;-76
2022/12/09 09:18:01;;;;;;;20.58;11.77;;;;;;;-0.14;100.00;100057.69;5031449;28;20052;-74
2022/12/09 09:20:28;;;;;;;18.65;10.32;;;;;;;-0.10;100.00;100053.50;5016122;28;20593;-77
2022/12/09 09:22:54;;;;;;;17.98;10.32;;;;;;;-0.05;100.00;100057.91;5017277;28;20052;-76
2022/12/09 09:25:21;;;;;;;18.38;11.05;;;;;;;-0.01;100.00;100061.44;5019685;28;20049;-74
2022/12/09 09:27:48;;;;;;;20.77;11.60;;;;;;;0.01;100.00;100057.19;5024012;28;20049;-75
2022/12/09 09:30:14;;;;;;;19.58;11.43;;;;;;;0.01;100.00;100059.75;5018817;28;20033;-76
2022/12/09 09:32:41;;;;;;;20.85;11.80;;;;;;;0.02;100.00;100060.63;5019035;28;20037;-74
2022/12/09 09:35:08;;;;;;;22.63;12.38;;;;;;;0.09;100.00;100057.38;5018515;28;20439;-76
2022/12/09 09:37:35;;;;;;;17.77;10.93;;;;;;;0.13;100.00;100057.50;5021093;28;20472;-75
2022/12/09 09:40:02;;;;;;;18.52;10.40;;;;;;;0.16;100.00;100052.41;5017959;28;20045;-75
2022/12/09 09:42:37;;;;;;;18.23;10.50;;;;;;;0.25;100.00;100061.16;5018587;28;20107;-75
2022/12/09 09:45:12;;;;;;;18.60;10.45;;;;;;;0.25;100.00;100062.06;5019036;28;20125;-74
2022/12/09 09:47:46;;;;;;;21.42;11.05;;;;;;;0.29;100.00;100063.84;5019065;28;20152;-75
2022/12/09 09:50:26;;;;;;;20.75;11.55;;;;;;;0.33;100.00;100059.66;5005184;28;20108;-76
2022/12/09 09:52:54;;;;;;;17.60;10.85;;;;;;;0.36;100.00;100057.16;5023129;28;20141;-74
2022/12/09 09:55:59;;;;;;;18.08;11.25;;;;;;;0.41;100.00;100057.25;5019836;28;20045;-76
2022/12/09 09:58:41;;;;;;;20.85;11.43;;;;;;;0.41;100.00;100059.84;5004802;28;20049;-75
2022/12/09 10:01:16;;;;;;;18.85;10.90;;;;;;;0.45;100.00;100053.91;5017921;28;20449;-76
2022/12/09 10:04:07;;;;;;;22.10;12.20;;;;;;;0.45;100.00;100049.63;5012754;28;20107;-74
2022/12/09 10:06:55;;;;;;;24.45;13.43;;;;;;;0.54;100.00;100054.13;5020060;28;20444;-76
2022/12/09 10:09:57;;;;;;;19.65;11.43;;;;;;;0.59;100.00;100057.66;5027496;28;20051;-74
2022/12/09 10:13:19;;;;;;;15.98;9.02;;;;;;;0.66;100.00;100061.25;5000264;28;20091;-76
2022/12/09 10:16:01;;;;;;;20.52;10.88;;;;;;;0.72;100.00;100053.66;5000303;28;20060;-75
2022/12/09 10:18:40;;;;;;;19.75;11.00;;;;;;;0.82;100.00;100055.59;5033820;28;20465;-74
2022/12/09 10:21:19;;;;;;;20.23;10.43;;;;;;;0.86;100.00;100053.94;5022140;28;20049;-76
2022/12/09 10:23:46;;;;;;;18.67;11.13;;;;;;;0.90;100.00;100045.44;5014936;28;20053;-76
2022/12/09 10:26:24;;;;;;;22.92;11.82;;;;;;;0.92;100.00;100046.31;5019594;28;20052;-74
2022/12/09 10:29:03;;;;;;;18.55;10.70;;;;;;;1.01;100.00;100039.63;5020054;28;20061;-76
2022/12/09 10:31:31;;;;;;;19.50;11.38;;;;;;;1.06;100.00;100044.03;5017916;28;20049;-76
2022/12/09 10:33:58;;;;;;;18.58;10.10;;;;;;;1.09;100.00;100038.94;5021194;28;20065;-76
2022/12/09 10:36:27;;;;;;;19.17;10.82;;;;;;;1.14;100.00;100042.47;5013527;28;20056;-75
2022/12/09 10:38:54;;;;;;;19.77;11.18;;;;;;;1.15;100.00;100035.63;5018728;28;20051;-76
2022/12/09 10:44:30;;;;;;;23.52;11.20;;;;;;;1.21;100.00;100040.00;5017527;28;20037;-74
2022/12/09 10:47:21;;;;;;;18.73;10.38;;;;;;;1.21;100.00;100043.44;5032109;28;20042;-76
2022/12/09 10:49:52;;;;;;;24.52;11.45;;;;;;;1.12;100.00;100039.00;5016307;28;20550;-77
2022/12/09 10:52:24;;;;;;;17.85;10.50;;;;;;;1.07;100.00;100026.84;5017893;28;20049;-76
2022/12/09 10:54:51;;;;;;;17.92;10.52;;;;;;;1.10;100.00;100024.34;5013002;28;20129;-76
2022/12/09 10:57:18;;;;;;;16.88;10.20;;;;;;;1.10;100.00;100024.34;5010199;28;20045;-76
2022/12/09 11:00:08;;;;;;;15.10;8.63;;;;;;;1.13;100.00;100022.72;5034182;28;20064;-76
2022/12/09 11:02:34;;;;;;;19.88;11.55;;;;;;;1.12;100.00;100027.81;5012160;28;20091;-76
2022/12/09 11:05:19;;;;;;;17.67;10.25;;;;;;;1.08;100.00;100028.59;5030960;28;20041;-76
2022/12/09 11:07:51;;;;;;;15.55;10.15;;;;;;;1.02;100.00;100025.88;5013508;28;20041;-75
2022/12/09 11:10:25;;;;;;;18.52;11.20;;;;;;;1.04;100.00;100026.78;5010529;28;20387;-75
2022/12/09 11:13:05;;;;;;;;;;;;;;;1.05;100.00;100020.81;5015654;28;20381;-75
2022/12/09 11:15:42;;;;;;;13.98;9.02;;;;;;;1.07;100.00;100027.72;5033100;28;19983;-75
2022/12/09 11:18:45;;;;;;;13.98;9.15;;;;;;;1.08;100.00;100018.28;5015155;28;20037;-75
2022/12/09 11:21:36;;;;;;;16.85;9.48;;;;;;;1.09;100.00;100028.63;4992013;28;20061;-75
2022/12/09 11:24:03;;;;;;;19.23;10.38;;;;;;;1.09;100.00;100020.03;5042178;28;20057;-77
2022/12/09 11:26:37;;;;;;;16.08;10.15;;;;;;;1.05;100.00;100020.81;5020667;28;20048;-74